Dalton Gardens, Idaho
Current Conditions -  °F | °C
As of 6:15 PM on Saturday 25 Oct 2014 (Local Time) from KCOE Reporting Station
Overcast Overcast  
Wind Chill: 54°   Ceiling: 8000
Heat Index: 54°   Visibility: 10mi
Dew Point: 45°   Wind: 7mph
Humidity: 72%   Direction: 60°ENE
Pressure: 29.53"   Gusts: NA
Location:  47.7269°N, 116.787°W
Report Text: KCOE 260115Z AUTO 06006KT 10SM FEW070 BKN080 OVC100 12/07 A2953 RMK AO1 LTG DSNT W
Loading
Personal Weather Stations






























Interactive Weather Map
Tropical Storm Tracking
New forecast layout! Learn more

10-Day Weather Forecast

Advertisements
Track Severe Weather on mobile